Time;durP1;ratioP1;P1;durP2;ratioP2;P2;SDS_P1;SDS_P2;PMS_P1;PMS_P2;Temp;Humidity;BMP_temperature;BMP_pressure;BME280_temperature;BME280_humidity;BME280_pressure;Samples;Min_cycle;Max_cycle;Signal;HPM_P1;HPM_P2
2022/08/16 00:00:21;;;;;;;19.80;12.43;;;;;;;26.46;53.05;100148.83;1787872;80;20999;-84
2022/08/16 00:02:47;;;;;;;13.95;9.68;;;;;;;26.46;53.39;100156.37;1786719;80;21085;-87
2022/08/16 00:05:14;;;;;;;17.37;10.08;;;;;;;26.46;54.72;100143.45;1786168;80;20928;-86
2022/08/16 00:07:41;;;;;;;15.03;9.78;;;;;;;26.39;55.46;100123.28;1786383;80;21393;-86
2022/08/16 00:10:10;;;;;;;20.57;9.83;;;;;;;26.32;56.99;100124.30;1786225;80;20911;-83
2022/08/16 00:12:40;;;;;;;33.25;11.35;;;;;;;26.21;59.30;100106.94;1786237;80;20962;-84
2022/08/16 00:15:13;;;;;;;15.83;8.43;;;;;;;26.05;61.59;100102.28;1785781;80;21138;-84
2022/08/16 00:17:40;;;;;;;23.80;10.58;;;;;;;25.78;62.24;100118.04;1784311;80;21416;-83
2022/08/16 00:20:11;;;;;;;17.73;10.48;;;;;;;25.51;63.19;100092.47;1785924;80;20916;-84
2022/08/16 00:22:38;;;;;;;19.10;10.50;;;;;;;25.29;64.73;100075.68;1784454;80;21346;-82
2022/08/16 00:25:07;;;;;;;23.98;10.28;;;;;;;25.07;65.52;100063.39;1786444;80;21393;-83
2022/08/16 00:27:34;;;;;;;21.23;10.58;;;;;;;24.86;66.77;100065.69;1786088;80;21080;-84
2022/08/16 00:30:01;;;;;;;20.95;10.55;;;;;;;24.70;68.68;100082.42;1786522;80;21017;-83
2022/08/16 00:32:28;;;;;;;19.73;9.65;;;;;;;24.59;68.42;100085.66;1786182;80;20915;-83
2022/08/16 00:34:54;;;;;;;21.40;9.78;;;;;;;24.49;67.98;100082.48;1786079;80;20931;-83
2022/08/16 00:37:23;;;;;;;17.65;10.28;;;;;;;24.39;69.06;100087.66;1786792;80;20920;-83
2022/08/16 00:39:49;;;;;;;23.05;10.82;;;;;;;24.28;70.26;100073.45;1786996;80;21229;-83
2022/08/16 00:42:17;;;;;;;18.62;11.35;;;;;;;24.22;71.75;100076.09;1768377;80;21410;-84
2022/08/16 00:44:55;;;;;;;29.87;13.08;;;;;;;24.15;73.02;100072.84;1768373;80;20885;-83
2022/08/16 00:47:22;;;;;;;26.42;11.65;;;;;;;24.09;74.44;100069.59;1768194;81;20864;-85
2022/08/16 00:49:49;;;;;;;22.95;11.75;;;;;;;24.00;75.33;100072.09;1768297;80;21007;-85
2022/08/16 00:52:15;;;;;;;24.98;13.15;;;;;;;23.91;76.00;100062.02;1768392;80;21359;-84
2022/08/16 00:54:42;;;;;;;26.02;12.55;;;;;;;23.83;76.92;100065.34;1768878;80;20849;-83
2022/08/16 00:57:09;;;;;;;23.12;12.47;;;;;;;23.72;77.72;100072.86;1768518;81;20996;-84
2022/08/16 00:59:37;;;;;;;22.50;12.58;;;;;;;23.64;78.51;100071.64;1768247;81;20854;-84
2022/08/16 01:02:06;;;;;;;16.48;10.35;;;;;;;23.58;78.96;100069.71;1768236;81;20900;-84
2022/08/16 01:04:32;;;;;;;23.42;11.73;;;;;;;23.51;79.58;100063.47;1768273;81;21968;-85
2022/08/16 01:07:01;;;;;;;23.87;12.28;;;;;;;23.45;80.11;100051.66;1768350;81;21001;-83
2022/08/16 01:09:34;;;;;;;20.00;11.97;;;;;;;23.42;80.58;100064.61;1741101;81;20889;-82
2022/08/16 01:12:02;;;;;;;23.60;13.68;;;;;;;23.37;81.17;100043.27;1768252;81;20968;-83
2022/08/16 01:14:40;;;;;;;21.62;11.75;;;;;;;23.35;81.69;100041.28;1768249;80;20992;-84
2022/08/16 01:17:07;;;;;;;24.05;12.93;;;;;;;23.30;81.98;100036.16;1767215;81;21901;-83
2022/08/16 01:19:47;;;;;;;28.12;13.93;;;;;;;23.25;82.47;100035.39;1768270;80;20916;-84
2022/08/16 01:22:34;;;;;;;25.30;13.18;;;;;;;23.23;82.73;100039.28;1768349;80;20881;-84
2022/08/16 01:25:08;;;;;;;22.70;12.07;;;;;;;23.18;82.98;100038.00;1768228;81;21389;-84
2022/08/16 01:27:47;;;;;;;20.92;11.65;;;;;;;23.13;83.31;100040.42;1767971;81;20882;-85
2022/08/16 01:30:27;;;;;;;19.05;12.10;;;;;;;23.06;83.67;100047.55;1768492;80;21895;-85
2022/08/16 01:32:56;;;;;;;18.80;11.80;;;;;;;23.03;84.17;100057.77;1768231;80;20920;-85
2022/08/16 01:35:34;;;;;;;18.77;11.78;;;;;;;22.98;84.59;100062.31;1740359;81;20909;-83
2022/08/16 01:38:27;;;;;;;21.33;11.70;;;;;;;22.97;84.73;100066.02;1755871;81;20960;-85
2022/08/16 01:47:17;;;;;;;21.55;11.33;;;;;;;22.93;85.58;100082.11;1718218;82;21453;-87
2022/08/16 01:49:45;;;;;;;20.62;10.98;;;;;;;22.92;85.95;100082.62;1719905;82;20985;-83
2022/08/16 01:52:15;;;;;;;14.55;11.43;;;;;;;22.93;86.08;100074.91;1719859;82;20917;-88
2022/08/16 01:54:46;;;;;;;18.70;12.58;;;;;;;22.95;86.22;100069.39;1693095;82;20893;-88
2022/08/16 01:57:13;;;;;;;19.62;11.88;;;;;;;22.97;86.45;100068.18;1720422;82;21211;-89
2022/08/16 01:59:41;;;;;;;16.73;11.08;;;;;;;22.99;87.03;100051.95;1720331;82;20894;-89
2022/08/16 02:02:10;;;;;;;16.50;12.53;;;;;;;23.02;87.19;100046.25;1719909;82;20949;-88
2022/08/16 02:04:37;;;;;;;18.17;11.40;;;;;;;23.02;87.20;100048.93;1720030;82;20941;-87
2022/08/16 02:07:07;;;;;;;18.52;12.68;;;;;;;23.03;87.30;100063.95;1719907;82;21461;-88
2022/08/16 02:09:32;;;;;;;18.85;12.43;;;;;;;23.05;87.57;100075.80;1719613;82;21098;-86
2022/08/16 02:12:00;;;;;;;17.35;12.43;;;;;;;23.07;88.04;100089.82;1719744;82;20940;-88
2022/08/16 02:14:29;;;;;;;19.25;12.70;;;;;;;23.09;88.11;100099.83;1719854;82;20874;-87
2022/08/16 02:16:58;;;;;;;18.50;11.68;;;;;;;23.07;88.00;100096.52;1719970;82;20949;-87
2022/08/16 02:19:27;;;;;;;20.60;11.22;;;;;;;23.06;88.04;100097.54;1719903;82;20933;-87
2022/08/16 02:21:54;;;;;;;18.10;12.55;;;;;;;23.04;88.21;100097.72;1719775;82;21525;-87
2022/08/16 02:24:21;;;;;;;14.75;12.10;;;;;;;23.04;88.42;100104.92;1719737;82;20886;-87
2022/08/16 02:26:48;;;;;;;17.87;13.35;;;;;;;23.05;88.81;100115.41;1719689;82;20945;-88
2022/08/16 02:29:17;;;;;;;17.95;12.33;;;;;;;23.06;88.76;100114.41;1693271;83;20973;-88
2022/08/16 02:31:45;;;;;;;19.25;12.07;;;;;;;23.09;88.53;100116.70;1719778;82;20913;-88
2022/08/16 02:34:12;;;;;;;21.77;13.80;;;;;;;23.11;88.69;100118.69;1719621;82;21137;-87
2022/08/16 02:36:40;;;;;;;22.02;14.73;;;;;;;23.13;88.89;100120.67;1719616;82;20921;-87
2022/08/16 02:39:08;;;;;;;19.12;13.88;;;;;;;23.15;88.69;100115.14;1719815;82;20945;-88
2022/08/16 02:41:36;;;;;;;25.72;15.68;;;;;;;23.16;88.11;100117.61;1719541;82;20946;-88
2022/08/16 02:44:04;;;;;;;22.70;15.48;;;;;;;23.17;87.45;100121.95;1719829;82;21039;-87
2022/08/16 02:46:32;;;;;;;24.20;16.27;;;;;;;23.17;86.15;100131.84;1719873;82;21247;-88
2022/08/16 02:49:05;;;;;;;23.00;14.03;;;;;;;23.18;85.18;100150.36;1719923;82;21453;-89
2022/08/16 02:51:32;;;;;;;25.77;13.15;;;;;;;23.18;83.61;100163.73;1720010;82;20888;-88
2022/08/16 02:54:00;;;;;;;17.50;13.65;;;;;;;23.21;82.87;100172.41;1720163;82;20853;-87
2022/08/16 02:56:28;;;;;;;19.00;12.50;;;;;;;23.25;83.20;100203.13;1720608;82;20972;-88
2022/08/16 02:58:55;;;;;;;17.30;12.15;;;;;;;23.26;79.98;100207.48;1720676;83;21828;-88
2022/08/16 03:01:26;;;;;;;17.55;12.05;;;;;;;23.26;79.59;100204.80;1720135;82;21019;-88
2022/08/16 03:03:54;;;;;;;20.97;12.20;;;;;;;23.26;78.10;100193.59;1695568;83;20921;-87
2022/08/16 03:06:22;;;;;;;16.37;11.48;;;;;;;23.25;77.15;100189.23;1720305;82;20897;-88
2022/08/16 03:08:49;;;;;;;16.52;11.80;;;;;;;23.25;76.84;100190.58;1719916;83;20936;-88
2022/08/16 03:11:17;;;;;;;15.35;12.07;;;;;;;23.24;77.19;100193.45;1720175;82;21948;-86
2022/08/16 03:13:48;;;;;;;15.28;11.35;;;;;;;23.20;77.68;100191.65;1720130;82;21437;-88
2022/08/16 03:16:15;;;;;;;17.35;12.07;;;;;;;23.16;78.14;100186.34;1720150;82;20937;-87
2022/08/16 03:18:42;;;;;;;21.42;11.95;;;;;;;23.11;78.63;100182.06;1719965;82;21390;-88
2022/08/16 03:21:11;;;;;;;15.48;11.08;;;;;;;23.07;79.23;100182.92;1719911;83;21482;-87
2022/08/16 03:23:38;;;;;;;17.73;9.70;;;;;;;23.02;79.66;100179.16;1719940;82;21823;-88
2022/08/16 03:26:07;;;;;;;12.73;9.25;;;;;;;22.95;80.07;100169.16;1720245;81;20933;-87
2022/08/16 03:28:34;;;;;;;12.78;9.38;;;;;;;22.91;80.45;100165.70;1720047;81;20952;-88
2022/08/16 03:31:00;;;;;;;17.15;10.05;;;;;;;22.86;80.85;100144.86;1720385;82;20878;-87
2022/08/16 03:33:27;;;;;;;19.15;9.48;;;;;;;22.83;80.86;100136.37;1721114;83;20936;-85
2022/08/16 03:35:58;;;;;;;16.35;10.78;;;;;;;22.79;81.10;100121.22;1720429;82;21289;-85
2022/08/16 03:38:31;;;;;;;17.10;8.53;;;;;;;22.78;81.31;100118.72;1656798;85;20895;-86
2022/08/16 03:40:59;;;;;;;15.43;8.28;;;;;;;22.75;81.12;100118.07;1668985;84;20878;-87
2022/08/16 03:43:26;;;;;;;12.90;7.83;;;;;;;22.71;81.28;100117.28;1669064;84;20961;-87
2022/08/16 03:45:54;;;;;;;14.45;8.83;;;;;;;22.65;81.16;100136.21;1668720;85;20969;-88
2022/08/16 03:48:25;;;;;;;10.68;8.70;;;;;;;22.62;81.21;100156.63;1682602;84;21824;-88
2022/08/16 03:50:52;;;;;;;11.45;7.28;;;;;;;22.58;81.05;100164.69;1682825;84;20870;-88
2022/08/16 03:53:19;;;;;;;16.37;8.05;;;;;;;22.55;80.69;100167.73;1682773;84;20949;-88
2022/08/16 03:55:45;;;;;;;10.90;7.33;;;;;;;22.48;80.50;100174.82;1682743;84;20993;-88
2022/08/16 03:58:12;;;;;;;9.65;7.33;;;;;;;22.43;81.16;100191.36;1683161;84;20977;-89
2022/08/16 04:00:38;;;;;;;10.60;7.28;;;;;;;22.38;80.95;100192.42;1720526;81;21141;-87
2022/08/16 04:03:06;;;;;;;11.73;6.67;;;;;;;22.32;81.05;100187.78;1721724;82;20902;-88
2022/08/16 04:05:36;;;;;;;14.83;6.75;;;;;;;22.28;81.67;100173.97;1722724;82;20914;-86
2022/08/16 04:08:04;;;;;;;14.23;8.23;;;;;;;22.26;82.02;100163.15;1696035;81;20976;-86
2022/08/16 04:10:30;;;;;;;13.05;8.08;;;;;;;22.25;82.59;100147.59;1722478;80;20952;-85
2022/08/16 04:12:57;;;;;;;11.93;6.85;;;;;;;22.26;83.03;100153.80;1719676;82;21203;-88
2022/08/16 04:15:24;;;;;;;16.42;7.72;;;;;;;22.25;83.48;100158.28;1719560;82;20940;-84
2022/08/16 04:17:53;;;;;;;15.38;8.00;;;;;;;22.24;83.37;100142.45;1717329;82;21008;-88
2022/08/16 04:20:20;;;;;;;11.35;7.87;;;;;;;22.23;83.92;100155.47;1719407;82;21439;-87
2022/08/16 04:22:47;;;;;;;12.95;7.65;;;;;;;22.23;84.56;100176.84;1719467;82;20933;-88
2022/08/16 04:25:13;;;;;;;14.85;7.90;;;;;;;22.22;85.07;100189.89;1719457;82;21725;-86
2022/08/16 04:27:40;;;;;;;10.48;7.20;;;;;;;22.21;85.53;100189.03;1719589;82;20966;-87
2022/08/16 04:30:13;;;;;;;9.90;7.00;;;;;;;22.21;85.64;100186.36;1719679;82;21457;-87
2022/08/16 04:32:41;;;;;;;13.32;7.72;;;;;;;22.23;85.87;100190.20;1719342;82;20898;-87
2022/08/16 04:35:12;;;;;;;10.78;8.40;;;;;;;22.25;86.31;100195.69;1719858;82;21418;-87
2022/08/16 04:37:39;;;;;;;16.62;8.38;;;;;;;22.28;86.49;100198.53;1719541;82;21350;-86
2022/08/16 04:40:10;;;;;;;11.53;8.08;;;;;;;22.29;86.84;100203.67;1718585;82;20961;-87
2022/08/16 04:42:39;;;;;;;15.78;8.48;;;;;;;22.32;87.12;100197.98;1719720;82;20878;-87
2022/08/16 04:45:07;;;;;;;14.18;8.58;;;;;;;22.37;87.25;100205.47;1719597;82;20913;-87
2022/08/16 04:47:34;;;;;;;14.10;8.40;;;;;;;22.41;87.58;100209.92;1711117;82;20933;-86
2022/08/16 04:50:13;;;;;;;14.95;8.75;;;;;;;22.45;87.81;100224.59;1708052;82;21095;-88
2022/08/16 04:52:45;;;;;;;10.28;7.65;;;;;;;22.49;88.02;100235.26;1706479;84;20917;-86
2022/08/16 04:55:15;;;;;;;11.05;8.75;;;;;;;22.51;88.00;100246.09;1708061;83;20878;-87
2022/08/16 04:57:43;;;;;;;20.35;9.28;;;;;;;22.53;88.02;100245.41;1707978;84;20870;-87
2022/08/16 05:00:19;;;;;;;15.15;8.03;;;;;;;22.56;88.08;100246.38;1708248;83;20998;-86
2022/08/16 05:02:49;;;;;;;10.55;7.75;;;;;;;22.58;88.06;100250.22;1708207;84;21870;-86
2022/08/16 05:05:16;;;;;;;8.78;7.80;;;;;;;22.60;87.92;100243.36;1708051;82;20933;-86
2022/08/16 05:07:42;;;;;;;11.30;8.70;;;;;;;22.61;87.66;100223.63;1686007;84;21001;-87
2022/08/16 05:10:09;;;;;;;18.85;9.00;;;;;;;22.61;87.81;100215.12;1708215;84;20933;-87
2022/08/16 05:12:36;;;;;;;19.00;9.30;;;;;;;22.61;87.84;100223.14;1708393;83;20957;-86
2022/08/16 05:15:05;;;;;;;13.32;8.48;;;;;;;22.62;87.78;100230.14;1708572;82;21163;-87
2022/08/16 05:17:34;;;;;;;14.25;8.00;;;;;;;22.61;87.71;100239.19;1709081;84;21479;-86
2022/08/16 05:20:04;;;;;;;12.68;8.58;;;;;;;22.60;87.80;100240.17;1708662;82;20953;-88
2022/08/16 05:22:35;;;;;;;14.23;8.90;;;;;;;22.59;87.87;100243.87;1708159;84;21421;-86
2022/08/16 05:25:04;;;;;;;15.18;9.30;;;;;;;22.58;87.90;100238.70;1708849;84;21307;-87
2022/08/16 05:27:32;;;;;;;12.35;8.08;;;;;;;22.56;87.98;100229.52;1708285;84;21245;-89
2022/08/16 05:29:58;;;;;;;13.15;8.65;;;;;;;22.55;88.33;100247.40;1708170;83;20921;-88
2022/08/16 05:32:26;;;;;;;13.93;9.40;;;;;;;22.55;88.40;100266.11;1708132;82;20933;-88
2022/08/16 05:34:54;;;;;;;15.95;9.05;;;;;;;22.54;88.69;100268.47;1708613;84;21000;-88
2022/08/16 05:37:23;;;;;;;14.85;9.15;;;;;;;22.55;89.00;100270.63;1686993;84;20893;-88
2022/08/16 05:39:50;;;;;;;13.08;8.90;;;;;;;22.56;89.08;100273.10;1709276;82;21143;-86
2022/08/16 05:42:16;;;;;;;11.45;9.43;;;;;;;22.58;89.18;100257.41;1708919;82;21450;-83
2022/08/16 05:44:43;;;;;;;12.20;10.00;;;;;;;22.59;89.11;100254.56;1686447;82;20969;-87
2022/08/16 05:47:10;;;;;;;12.82;9.40;;;;;;;22.59;89.18;100254.56;1713507;82;20865;-88
2022/08/16 05:49:37;;;;;;;13.62;8.85;;;;;;;22.60;89.26;100262.89;1695741;83;20944;-87
2022/08/16 05:52:03;;;;;;;16.42;10.03;;;;;;;22.60;89.21;100280.27;1719881;82;21132;-88
2022/08/16 05:54:30;;;;;;;14.45;10.50;;;;;;;22.59;89.07;100314.70;1719790;82;20913;-86
2022/08/16 05:57:00;;;;;;;16.42;9.50;;;;;;;22.56;88.93;100316.38;1720283;82;20936;-86
2022/08/16 05:59:27;;;;;;;16.40;10.35;;;;;;;22.56;88.80;100313.70;1719771;82;20972;-87
2022/08/16 06:01:54;;;;;;;16.35;10.38;;;;;;;22.58;88.98;100326.90;1719782;81;20975;-87
2022/08/16 06:04:22;;;;;;;11.55;9.10;;;;;;;22.58;89.44;100313.02;1654024;85;21981;-87
2022/08/16 06:06:49;;;;;;;15.88;10.68;;;;;;;22.60;89.52;100325.70;1663493;85;20981;-87
2022/08/16 06:09:16;;;;;;;14.07;10.15;;;;;;;22.60;89.57;100329.72;1663413;85;20954;-87
2022/08/16 06:11:43;;;;;;;15.48;10.45;;;;;;;22.62;89.32;100328.21;1663471;85;21166;-87
2022/08/16 06:14:10;;;;;;;13.53;9.85;;;;;;;22.65;89.28;100353.23;1663693;85;20910;-85
2022/08/16 06:16:38;;;;;;;17.25;10.68;;;;;;;22.65;89.21;100350.05;1663737;85;21170;-87
2022/08/16 06:19:05;;;;;;;13.68;10.25;;;;;;;22.69;89.19;100346.53;1663461;85;20957;-86
2022/08/16 06:21:33;;;;;;;13.78;10.45;;;;;;;22.73;89.44;100350.52;1663303;85;21025;-86
2022/08/16 06:24:01;;;;;;;16.27;10.55;;;;;;;22.77;89.35;100353.17;1663301;85;21467;-87
2022/08/16 06:26:30;;;;;;;13.55;11.15;;;;;;;22.81;89.32;100349.13;1663586;84;20851;-86
2022/08/16 06:28:57;;;;;;;14.28;11.15;;;;;;;22.83;89.10;100343.07;1694290;84;21137;-87
2022/08/16 06:31:25;;;;;;;14.28;11.85;;;;;;;22.86;89.07;100345.92;1664351;84;20910;-87
2022/08/16 06:33:53;;;;;;;14.18;10.43;;;;;;;22.88;88.55;100343.91;1663306;86;21050;-85
2022/08/16 06:36:20;;;;;;;14.07;10.63;;;;;;;22.89;88.49;100341.03;1663255;85;21479;-87
2022/08/16 06:38:54;;;;;;;12.58;10.70;;;;;;;22.91;88.34;100332.83;1664186;84;21423;-86
2022/08/16 06:41:22;;;;;;;15.48;11.43;;;;;;;22.91;88.15;100321.63;1663978;84;21781;-87
2022/08/16 06:43:49;;;;;;;19.90;13.43;;;;;;;22.91;88.24;100312.27;1694648;83;20902;-83
2022/08/16 06:46:33;;;;;;;15.43;11.70;;;;;;;22.93;88.57;100308.91;1665593;86;20990;-84
2022/08/16 06:49:01;;;;;;;14.70;11.95;;;;;;;22.97;88.84;100298.69;1648856;85;21423;-87
2022/08/16 06:51:28;;;;;;;19.87;13.95;;;;;;;22.99;88.73;100288.64;1663534;85;20974;-86
2022/08/16 06:53:54;;;;;;;14.15;12.63;;;;;;;23.00;88.63;100282.30;1663518;85;21238;-86
2022/08/16 06:56:21;;;;;;;15.72;12.37;;;;;;;23.03;88.77;100269.06;1663497;85;21377;-86
2022/08/16 06:58:53;;;;;;;17.00;14.95;;;;;;;23.04;88.68;100262.72;1669472;84;21371;-86
2022/08/16 07:01:22;;;;;;;20.82;15.53;;;;;;;23.04;88.85;100256.03;1663551;83;20922;-85
2022/08/16 07:03:49;;;;;;;24.77;14.87;;;;;;;23.07;89.02;100246.30;1665803;85;21015;-85
2022/08/16 07:06:17;;;;;;;18.25;15.68;;;;;;;23.11;89.06;100242.25;1665516;85;21251;-82
2022/08/16 07:08:46;;;;;;;17.70;14.90;;;;;;;23.11;89.00;100232.38;1697151;82;20894;-81
2022/08/16 07:11:14;;;;;;;17.27;15.20;;;;;;;23.15;89.18;100226.16;1665883;84;20938;-85
2022/08/16 07:13:41;;;;;;;18.32;15.08;;;;;;;23.19;89.23;100222.11;1663462;85;20954;-84
2022/08/16 07:16:13;;;;;;;18.02;15.30;;;;;;;23.21;89.01;100224.58;1663738;85;20973;-84
2022/08/16 07:18:36;;;;;;;20.35;15.15;;;;;;;23.24;88.95;100233.08;1664348;83;21266;-84
2022/08/16 07:21:03;;;;;;;29.15;14.83;;;;;;;23.28;88.62;100234.89;1663305;85;21041;-84
2022/08/16 07:23:32;;;;;;;20.97;15.15;;;;;;;23.31;88.72;100233.17;1663343;85;20875;-83
2022/08/16 07:25:59;;;;;;;15.78;13.43;;;;;;;23.37;88.48;100241.80;1663555;86;20906;-85
2022/08/16 07:28:26;;;;;;;20.10;15.08;;;;;;;23.40;88.30;100245.44;1694258;83;21013;-84
2022/08/16 07:30:54;;;;;;;16.05;13.75;;;;;;;23.44;87.69;100245.91;1663411;85;21251;-84
2022/08/16 07:33:22;;;;;;;20.08;13.43;;;;;;;23.45;86.95;100243.54;1663670;84;20902;-86
2022/08/16 07:35:49;;;;;;;16.87;13.95;;;;;;;23.45;86.72;100247.04;1663323;85;21415;-85
2022/08/16 07:38:16;;;;;;;17.65;13.83;;;;;;;23.47;86.56;100257.57;1663368;85;21455;-86
2022/08/16 07:40:45;;;;;;;16.30;14.15;;;;;;;23.51;85.75;100261.55;1664397;84;21037;-84
2022/08/16 07:43:11;;;;;;;19.75;12.20;;;;;;;23.56;85.40;100261.30;1663481;85;21239;-83
2022/08/16 07:45:38;;;;;;;19.12;13.72;;;;;;;23.61;84.72;100252.73;1663487;85;20863;-85
2022/08/16 07:48:05;;;;;;;20.65;14.23;;;;;;;23.66;84.43;100252.99;1661903;85;20907;-84
2022/08/16 07:50:33;;;;;;;19.87;13.10;;;;;;;23.69;83.57;100262.49;1660515;85;21026;-83
2022/08/16 07:52:59;;;;;;;17.57;12.88;;;;;;;23.70;81.56;100255.62;1660629;85;20907;-83
2022/08/16 07:55:26;;;;;;;22.13;14.95;;;;;;;23.72;80.61;100270.14;1660560;85;21183;-85
2022/08/16 07:57:53;;;;;;;19.42;13.05;;;;;;;23.76;80.28;100273.63;1660637;85;21053;-84
2022/08/16 08:00:20;;;;;;;15.23;13.08;;;;;;;23.83;80.59;100280.92;1660644;85;20940;-85
2022/08/16 08:02:48;;;;;;;16.97;12.40;;;;;;;23.89;80.90;100276.98;1660853;85;20931;-84
2022/08/16 08:05:19;;;;;;;17.07;12.35;;;;;;;23.92;81.47;100282.47;1660702;85;20935;-84
2022/08/16 08:07:46;;;;;;;16.97;12.93;;;;;;;23.96;81.02;100285.10;1635667;85;21896;-86
2022/08/16 08:10:13;;;;;;;17.50;12.47;;;;;;;24.00;80.32;100281.03;1662117;85;21009;-85
2022/08/16 08:12:47;;;;;;;19.27;14.63;;;;;;;24.04;80.95;100282.32;1662412;85;20879;-85
2022/08/16 08:15:13;;;;;;;21.75;14.33;;;;;;;24.09;81.20;100283.92;1635451;86;20931;-85
2022/08/16 08:17:41;;;;;;;17.92;14.05;;;;;;;24.13;81.58;100285.72;1661453;85;20900;-85
2022/08/16 08:20:10;;;;;;;24.70;14.93;;;;;;;24.17;81.22;100282.47;1660725;85;21140;-85
2022/08/16 08:22:38;;;;;;;17.70;14.68;;;;;;;24.23;80.70;100285.41;1660604;85;20879;-87
2022/08/16 08:25:07;;;;;;;20.08;15.63;;;;;;;24.28;80.72;100292.36;1660171;85;20970;-84
2022/08/16 08:27:35;;;;;;;18.25;15.43;;;;;;;24.30;81.06;100300.55;1660421;85;20986;-87
2022/08/16 08:30:04;;;;;;;25.05;15.55;;;;;;;24.31;80.49;100301.37;1660507;85;21487;-86
2022/08/16 08:32:33;;;;;;;24.05;14.38;;;;;;;24.32;80.57;100310.58;1660437;85;21255;-86
2022/08/16 08:35:01;;;;;;;26.07;14.70;;;;;;;24.32;80.92;100314.59;1660356;85;21076;-85
2022/08/16 08:37:28;;;;;;;21.93;16.00;;;;;;;24.33;80.37;100309.55;1660353;85;21425;-86
2022/08/16 08:39:57;;;;;;;18.37;14.18;;;;;;;24.32;80.44;100307.90;1660250;85;20935;-85
2022/08/16 08:42:23;;;;;;;23.87;15.28;;;;;;;24.31;80.69;100316.12;1660784;86;20954;-86
2022/08/16 08:44:50;;;;;;;21.70;13.08;;;;;;;24.25;80.53;100325.73;1660938;85;21150;-88
2022/08/16 08:47:19;;;;;;;17.87;12.58;;;;;;;24.20;78.68;100330.31;1660533;85;20935;-87
2022/08/16 08:49:47;;;;;;;18.77;13.72;;;;;;;24.15;77.82;100324.70;1663206;85;20923;-85
2022/08/16 08:52:14;;;;;;;21.75;16.75;;;;;;;24.11;78.42;100327.95;1663232;86;21002;-85
2022/08/16 08:57:31;;;;;;;20.37;13.28;;;;;;;24.07;78.55;100333.35;1816657;79;22569;-85
2022/08/16 09:00:17;;;;;;;24.55;16.52;;;;;;;23.97;77.06;100343.03;1788799;80;20911;-85
2022/08/16 09:02:45;;;;;;;22.75;15.70;;;;;;;23.94;76.39;100344.72;1789791;80;21078;-86
2022/08/16 09:05:13;;;;;;;23.65;12.95;;;;;;;23.92;74.94;100346.27;1789709;80;20978;-85
2022/08/16 09:07:39;;;;;;;18.30;13.60;;;;;;;23.90;72.97;100346.96;1789637;80;20899;-86
2022/08/16 09:10:08;;;;;;;19.70;12.68;;;;;;;23.91;71.87;100354.48;1789541;80;20872;-86
2022/08/16 09:12:38;;;;;;;20.57;12.20;;;;;;;23.90;71.79;100344.77;1789702;80;20856;-88
2022/08/16 09:15:09;;;;;;;16.23;10.72;;;;;;;23.90;71.98;100334.05;1789607;80;21205;-86
2022/08/16 09:17:36;;;;;;;18.57;11.50;;;;;;;23.91;71.43;100330.38;1789624;80;20915;-85
2022/08/16 09:20:06;;;;;;;18.82;11.35;;;;;;;23.91;72.07;100311.63;1789440;80;20848;-85
2022/08/16 09:22:33;;;;;;;25.80;12.93;;;;;;;23.93;72.37;100310.94;1789601;80;20896;-85
2022/08/16 09:24:59;;;;;;;22.98;12.00;;;;;;;23.95;73.12;100299.53;1791545;80;20947;-87
2022/08/16 09:27:28;;;;;;;16.35;11.28;;;;;;;23.95;74.02;100300.87;1791947;80;21159;-87
2022/08/16 09:29:55;;;;;;;20.12;11.45;;;;;;;23.97;74.77;100301.52;1790511;80;21381;-85
2022/08/16 09:32:22;;;;;;;18.17;13.30;;;;;;;23.99;75.38;100316.38;1790194;80;20900;-86
2022/08/16 09:34:48;;;;;;;19.82;12.93;;;;;;;24.02;76.01;100321.04;1790201;80;21006;-86
2022/08/16 09:37:15;;;;;;;28.23;14.98;;;;;;;24.08;76.89;100314.91;1789624;80;21342;-86
2022/08/16 09:39:43;;;;;;;19.73;13.10;;;;;;;24.14;77.53;100318.18;1789550;79;21145;-86
2022/08/16 09:42:10;;;;;;;17.37;12.70;;;;;;;24.18;77.56;100318.95;1789476;80;20999;-85
2022/08/16 09:44:37;;;;;;;17.75;13.85;;;;;;;24.26;77.83;100314.52;1789550;80;21382;-87
2022/08/16 09:47:03;;;;;;;19.65;12.68;;;;;;;24.31;77.96;100303.54;1789590;80;20935;-87
2022/08/16 09:49:30;;;;;;;22.93;12.45;;;;;;;24.43;77.74;100299.02;1789723;80;21484;-87
2022/08/16 09:51:57;;;;;;;22.45;13.25;;;;;;;24.54;77.81;100298.54;1789838;80;21078;-86
2022/08/16 09:54:25;;;;;;;19.73;11.63;;;;;;;24.70;77.32;100294.28;1790654;80;20928;-83
2022/08/16 09:56:51;;;;;;;19.57;12.68;;;;;;;24.89;76.75;100295.98;1778294;80;20924;-83
2022/08/16 09:59:18;;;;;;;19.77;12.68;;;;;;;25.06;75.68;100302.72;1769477;80;21492;-85
2022/08/16 10:01:46;;;;;;;18.85;11.97;;;;;;;25.19;75.13;100303.34;1770732;81;20866;-85
2022/08/16 10:04:14;;;;;;;23.35;12.35;;;;;;;25.30;73.70;100300.14;1772165;81;21429;-85
2022/08/16 10:06:41;;;;;;;15.58;12.95;;;;;;;25.38;72.81;100295.13;1771568;78;20983;-85
2022/08/16 10:09:08;;;;;;;19.75;12.33;;;;;;;25.43;71.76;100296.20;1771514;78;20869;-86
2022/08/16 10:14:22;;;;;;;16.10;11.75;;;;;;;25.52;70.88;100295.50;1768382;80;20921;-86
2022/08/16 10:16:48;;;;;;;19.48;13.20;;;;;;;25.57;70.42;100285.02;1768423;81;21082;-86
2022/08/16 10:19:15;;;;;;;18.90;13.38;;;;;;;25.65;70.92;100287.52;1768684;81;20885;-87
2022/08/16 10:21:43;;;;;;;18.45;12.13;;;;;;;25.84;70.93;100294.02;1768455;80;20965;-87
2022/08/16 10:24:11;;;;;;;17.20;12.03;;;;;;;26.11;71.21;100295.50;1768610;80;20901;-85
2022/08/16 10:26:38;;;;;;;18.70;12.90;;;;;;;26.34;70.60;100293.79;1768601;81;21500;-86
2022/08/16 10:29:05;;;;;;;21.85;13.88;;;;;;;26.55;70.40;100302.75;1768845;81;21297;-85
2022/08/16 10:31:34;;;;;;;17.32;12.50;;;;;;;26.73;69.56;100301.66;1768676;80;21363;-87
2022/08/16 10:34:01;;;;;;;17.35;13.35;;;;;;;26.88;68.88;100310.35;1768426;81;20932;-86
2022/08/16 10:36:28;;;;;;;16.12;11.33;;;;;;;26.99;68.57;100307.56;1768238;80;21438;-86
2022/08/16 10:38:55;;;;;;;16.95;11.88;;;;;;;27.04;67.32;100306.94;1768510;81;20932;-86
2022/08/16 10:41:22;;;;;;;13.88;10.93;;;;;;;27.04;66.87;100313.66;1768345;81;21429;-86
2022/08/16 10:43:49;;;;;;;21.30;11.53;;;;;;;27.04;65.29;100315.02;1769014;81;20991;-86
2022/08/16 10:46:15;;;;;;;17.92;10.98;;;;;;;27.05;63.76;100313.44;1768632;80;20846;-87
2022/08/16 10:48:43;;;;;;;15.13;10.65;;;;;;;27.05;63.70;100318.82;1768371;80;20901;-86
2022/08/16 10:51:10;;;;;;;13.60;10.23;;;;;;;27.04;63.38;100327.12;1768396;81;21004;-85
2022/08/16 10:53:37;;;;;;;16.95;10.53;;;;;;;27.03;63.19;100330.31;1768300;81;21095;-85
2022/08/16 10:56:07;;;;;;;22.40;11.70;;;;;;;27.02;63.05;100327.84;1768131;80;20928;-85
2022/08/16 10:58:34;;;;;;;21.25;12.43;;;;;;;27.01;62.66;100326.17;1768181;80;20924;-85
2022/08/16 11:01:05;;;;;;;18.37;10.48;;;;;;;26.98;62.54;100325.25;1768285;81;20936;-85
2022/08/16 11:03:32;;;;;;;17.80;11.18;;;;;;;26.94;62.45;100321.31;1768201;80;21428;-85
2022/08/16 11:05:59;;;;;;;15.25;9.70;;;;;;;26.94;63.01;100322.66;1768322;81;21070;-85
2022/08/16 11:08:26;;;;;;;17.65;10.85;;;;;;;26.96;62.18;100333.52;1768396;81;20912;-85
2022/08/16 11:10:52;;;;;;;16.93;11.53;;;;;;;26.94;62.48;100328.05;1768465;81;20933;-86
2022/08/16 11:13:22;;;;;;;12.15;10.85;;;;;;;26.92;63.23;100327.42;1768477;81;21015;-86
2022/08/16 11:15:48;;;;;;;18.62;12.07;;;;;;;26.91;63.37;100328.47;1768536;81;21059;-85
2022/08/16 11:18:15;;;;;;;14.55;11.78;;;;;;;26.87;64.40;100318.09;1768542;80;21791;-85
2022/08/16 11:20:43;;;;;;;18.52;11.55;;;;;;;26.89;64.14;100315.21;1768558;81;21387;-85
2022/08/16 11:23:10;;;;;;;15.65;11.90;;;;;;;26.88;64.15;100310.88;1768544;81;21472;-86
2022/08/16 11:25:37;;;;;;;16.25;12.63;;;;;;;26.84;63.75;100317.17;1768402;80;20936;-86
2022/08/16 11:28:04;;;;;;;21.10;13.83;;;;;;;26.82;63.88;100312.52;1768491;81;21461;-85